sensor_id;sensor_type;location;lat;lon;timestamp;P1;durP1;ratioP1;P2;durP2;ratioP2
3547;SDS011;1788;49.400;11.092;2022-07-18T00:01:47;1.73;;;1.63;;
3547;SDS011;1788;49.400;11.092;2022-07-18T00:04:13;2.50;;;1.93;;
3547;SDS011;1788;49.400;11.092;2022-07-18T00:06:41;2.23;;;2.03;;
3547;SDS011;1788;49.400;11.092;2022-07-18T00:09:07;1.80;;;1.70;;
3547;SDS011;1788;49.400;11.092;2022-07-18T00:11:35;1.90;;;1.80;;
3547;SDS011;1788;49.400;11.092;2022-07-18T00:14:01;1.80;;;1.70;;
3547;SDS011;1788;49.400;11.092;2022-07-18T00:16:28;2.33;;;2.13;;
3547;SDS011;1788;49.400;11.092;2022-07-18T00:18:54;2.07;;;1.80;;
3547;SDS011;1788;49.400;11.092;2022-07-18T00:21:21;3.67;;;2.30;;
3547;SDS011;1788;49.400;11.092;2022-07-18T00:23:48;3.00;;;2.53;;
3547;SDS011;1788;49.400;11.092;2022-07-18T00:26:15;1.90;;;1.80;;
3547;SDS011;1788;49.400;11.092;2022-07-18T00:28:42;2.53;;;2.33;;
3547;SDS011;1788;49.400;11.092;2022-07-18T00:31:09;1.97;;;1.90;;
3547;SDS011;1788;49.400;11.092;2022-07-18T00:33:36;2.63;;;2.27;;
3547;SDS011;1788;49.400;11.092;2022-07-18T00:36:02;2.23;;;2.03;;
3547;SDS011;1788;49.400;11.092;2022-07-18T00:38:29;1.93;;;1.87;;
3547;SDS011;1788;49.400;11.092;2022-07-18T00:40:56;1.83;;;1.73;;
3547;SDS011;1788;49.400;11.092;2022-07-18T00:43:23;2.33;;;2.00;;
3547;SDS011;1788;49.400;11.092;2022-07-18T00:45:50;2.47;;;2.00;;
3547;SDS011;1788;49.400;11.092;2022-07-18T00:48:17;2.23;;;1.90;;
3547;SDS011;1788;49.400;11.092;2022-07-18T00:50:44;2.53;;;1.80;;
3547;SDS011;1788;49.400;11.092;2022-07-18T00:53:10;2.47;;;1.97;;
3547;SDS011;1788;49.400;11.092;2022-07-18T00:55:37;4.17;;;2.00;;
3547;SDS011;1788;49.400;11.092;2022-07-18T00:58:03;2.47;;;2.20;;
3547;SDS011;1788;49.400;11.092;2022-07-18T01:00:30;2.27;;;2.07;;
3547;SDS011;1788;49.400;11.092;2022-07-18T01:02:57;2.40;;;2.10;;
3547;SDS011;1788;49.400;11.092;2022-07-18T01:05:23;1.87;;;1.80;;
3547;SDS011;1788;49.400;11.092;2022-07-18T01:07:50;3.07;;;2.17;;
3547;SDS011;1788;49.400;11.092;2022-07-18T01:10:17;2.20;;;2.00;;
3547;SDS011;1788;49.400;11.092;2022-07-18T01:12:45;3.57;;;2.53;;
3547;SDS011;1788;49.400;11.092;2022-07-18T01:15:11;1.87;;;1.77;;
3547;SDS011;1788;49.400;11.092;2022-07-18T01:17:38;2.47;;;2.20;;
3547;SDS011;1788;49.400;11.092;2022-07-18T01:20:05;2.40;;;2.20;;
3547;SDS011;1788;49.400;11.092;2022-07-18T01:22:31;2.50;;;2.30;;
3547;SDS011;1788;49.400;11.092;2022-07-18T01:24:58;2.20;;;2.00;;
3547;SDS011;1788;49.400;11.092;2022-07-18T01:27:25;1.83;;;1.73;;
3547;SDS011;1788;49.400;11.092;2022-07-18T01:29:52;2.77;;;2.57;;
3547;SDS011;1788;49.400;11.092;2022-07-18T01:32:19;2.47;;;2.27;;
3547;SDS011;1788;49.400;11.092;2022-07-18T01:34:46;1.90;;;1.80;;
3547;SDS011;1788;49.400;11.092;2022-07-18T01:37:12;2.03;;;1.90;;
3547;SDS011;1788;49.400;11.092;2022-07-18T01:47:07;2.57;;;1.90;;
3547;SDS011;1788;49.400;11.092;2022-07-18T01:49:33;2.47;;;2.27;;
3547;SDS011;1788;49.400;11.092;2022-07-18T01:51:59;2.57;;;2.30;;
3547;SDS011;1788;49.400;11.092;2022-07-18T01:56:52;2.67;;;2.20;;
3547;SDS011;1788;49.400;11.092;2022-07-18T02:01:47;2.50;;;2.30;;
3547;SDS011;1788;49.400;11.092;2022-07-18T02:06:41;2.77;;;2.57;;
3547;SDS011;1788;49.400;11.092;2022-07-18T02:09:09;2.50;;;2.30;;
3547;SDS011;1788;49.400;11.092;2022-07-18T02:14:03;5.03;;;2.40;;
3547;SDS011;1788;49.400;11.092;2022-07-18T02:16:29;3.67;;;3.20;;
3547;SDS011;1788;49.400;11.092;2022-07-18T02:18:56;2.50;;;2.17;;
3547;SDS011;1788;49.400;11.092;2022-07-18T02:21:22;2.87;;;2.67;;
3547;SDS011;1788;49.400;11.092;2022-07-18T02:23:49;2.50;;;2.20;;
3547;SDS011;1788;49.400;11.092;2022-07-18T02:26:16;3.20;;;2.53;;
3547;SDS011;1788;49.400;11.092;2022-07-18T02:28:42;2.37;;;2.17;;
3547;SDS011;1788;49.400;11.092;2022-07-18T02:31:09;2.60;;;2.40;;
3547;SDS011;1788;49.400;11.092;2022-07-18T02:33:36;2.67;;;2.37;;
3547;SDS011;1788;49.400;11.092;2022-07-18T02:36:03;2.73;;;2.53;;
3547;SDS011;1788;49.400;11.092;2022-07-18T02:38:29;2.67;;;2.47;;
3547;SDS011;1788;49.400;11.092;2022-07-18T02:40:57;4.73;;;2.63;;
3547;SDS011;1788;49.400;11.092;2022-07-18T02:45:52;4.03;;;2.67;;
3547;SDS011;1788;49.400;11.092;2022-07-18T02:48:18;2.57;;;2.37;;
3547;SDS011;1788;49.400;11.092;2022-07-18T02:50:45;2.60;;;2.40;;
3547;SDS011;1788;49.400;11.092;2022-07-18T02:53:12;2.87;;;2.60;;
3547;SDS011;1788;49.400;11.092;2022-07-18T02:55:39;2.97;;;2.60;;
3547;SDS011;1788;49.400;11.092;2022-07-18T02:58:06;2.80;;;2.60;;
3547;SDS011;1788;49.400;11.092;2022-07-18T03:00:33;2.93;;;2.73;;
3547;SDS011;1788;49.400;11.092;2022-07-18T03:03:00;3.77;;;2.80;;
3547;SDS011;1788;49.400;11.092;2022-07-18T03:05:27;4.90;;;2.77;;
3547;SDS011;1788;49.400;11.092;2022-07-18T03:07:54;3.30;;;2.60;;
3547;SDS011;1788;49.400;11.092;2022-07-18T03:10:21;2.93;;;2.73;;
3547;SDS011;1788;49.400;11.092;2022-07-18T03:12:47;3.50;;;2.73;;
3547;SDS011;1788;49.400;11.092;2022-07-18T03:15:14;2.77;;;2.57;;
3547;SDS011;1788;49.400;11.092;2022-07-18T03:17:41;2.57;;;2.37;;
3547;SDS011;1788;49.400;11.092;2022-07-18T03:20:08;2.77;;;2.57;;
3547;SDS011;1788;49.400;11.092;2022-07-18T03:22:35;2.97;;;2.70;;
3547;SDS011;1788;49.400;11.092;2022-07-18T03:25:01;2.90;;;2.70;;
3547;SDS011;1788;49.400;11.092;2022-07-18T03:27:28;2.97;;;2.40;;
3547;SDS011;1788;49.400;11.092;2022-07-18T03:29:55;2.70;;;2.50;;
3547;SDS011;1788;49.400;11.092;2022-07-18T03:32:21;3.20;;;3.00;;
3547;SDS011;1788;49.400;11.092;2022-07-18T03:34:48;5.13;;;3.10;;
3547;SDS011;1788;49.400;11.092;2022-07-18T03:37:14;3.97;;;2.63;;
3547;SDS011;1788;49.400;11.092;2022-07-18T03:39:41;4.73;;;2.83;;
3547;SDS011;1788;49.400;11.092;2022-07-18T03:42:08;3.27;;;3.07;;
3547;SDS011;1788;49.400;11.092;2022-07-18T03:44:35;3.00;;;2.80;;
3547;SDS011;1788;49.400;11.092;2022-07-18T03:47:02;3.97;;;2.97;;
3547;SDS011;1788;49.400;11.092;2022-07-18T03:49:29;4.10;;;2.97;;
3547;SDS011;1788;49.400;11.092;2022-07-18T03:51:56;3.30;;;3.10;;
3547;SDS011;1788;49.400;11.092;2022-07-18T03:54:23;2.80;;;2.60;;
3547;SDS011;1788;49.400;11.092;2022-07-18T03:56:50;4.10;;;3.03;;
3547;SDS011;1788;49.400;11.092;2022-07-18T03:59:16;2.97;;;2.80;;
3547;SDS011;1788;49.400;11.092;2022-07-18T04:01:44;2.87;;;2.33;;
3547;SDS011;1788;49.400;11.092;2022-07-18T04:04:10;3.23;;;3.07;;
3547;SDS011;1788;49.400;11.092;2022-07-18T04:06:38;3.00;;;2.80;;
3547;SDS011;1788;49.400;11.092;2022-07-18T04:09:04;3.43;;;3.23;;
3547;SDS011;1788;49.400;11.092;2022-07-18T04:11:32;4.27;;;2.80;;
3547;SDS011;1788;49.400;11.092;2022-07-18T04:13:59;2.87;;;2.67;;
3547;SDS011;1788;49.400;11.092;2022-07-18T04:16:25;3.27;;;3.03;;
3547;SDS011;1788;49.400;11.092;2022-07-18T04:18:52;2.63;;;2.43;;
3547;SDS011;1788;49.400;11.092;2022-07-18T04:21:19;4.20;;;3.20;;
3547;SDS011;1788;49.400;11.092;2022-07-18T04:23:45;4.43;;;3.13;;
3547;SDS011;1788;49.400;11.092;2022-07-18T04:26:12;3.60;;;3.43;;
3547;SDS011;1788;49.400;11.092;2022-07-18T04:28:38;2.70;;;2.53;;
3547;SDS011;1788;49.400;11.092;2022-07-18T04:31:05;3.07;;;2.87;;
3547;SDS011;1788;49.400;11.092;2022-07-18T04:33:32;3.73;;;3.17;;
3547;SDS011;1788;49.400;11.092;2022-07-18T04:35:59;3.07;;;2.87;;
3547;SDS011;1788;49.400;11.092;2022-07-18T04:38:26;2.70;;;2.50;;
3547;SDS011;1788;49.400;11.092;2022-07-18T04:40:53;3.40;;;3.20;;
3547;SDS011;1788;49.400;11.092;2022-07-18T04:43:20;3.17;;;2.87;;
3547;SDS011;1788;49.400;11.092;2022-07-18T04:45:46;3.87;;;3.30;;
3547;SDS011;1788;49.400;11.092;2022-07-18T04:48:13;2.50;;;2.30;;
3547;SDS011;1788;49.400;11.092;2022-07-18T04:50:40;3.07;;;2.83;;
3547;SDS011;1788;49.400;11.092;2022-07-18T04:53:07;3.13;;;2.70;;
3547;SDS011;1788;49.400;11.092;2022-07-18T04:55:34;3.17;;;2.97;;
3547;SDS011;1788;49.400;11.092;2022-07-18T04:58:00;3.27;;;3.07;;
3547;SDS011;1788;49.400;11.092;2022-07-18T05:00:27;3.70;;;3.07;;
3547;SDS011;1788;49.400;11.092;2022-07-18T05:02:54;3.50;;;3.30;;
3547;SDS011;1788;49.400;11.092;2022-07-18T05:05:20;3.43;;;3.17;;
3547;SDS011;1788;49.400;11.092;2022-07-18T05:07:47;3.63;;;3.10;;
3547;SDS011;1788;49.400;11.092;2022-07-18T05:10:14;3.83;;;3.63;;
3547;SDS011;1788;49.400;11.092;2022-07-18T05:12:41;3.20;;;2.80;;
3547;SDS011;1788;49.400;11.092;2022-07-18T05:15:08;4.07;;;3.40;;
3547;SDS011;1788;49.400;11.092;2022-07-18T05:17:35;3.30;;;3.10;;
3547;SDS011;1788;49.400;11.092;2022-07-18T05:20:02;3.50;;;3.23;;
3547;SDS011;1788;49.400;11.092;2022-07-18T05:22:28;4.20;;;3.20;;
3547;SDS011;1788;49.400;11.092;2022-07-18T05:24:54;3.23;;;3.07;;
3547;SDS011;1788;49.400;11.092;2022-07-18T05:27:21;7.70;;;3.20;;
3547;SDS011;1788;49.400;11.092;2022-07-18T05:29:48;5.87;;;3.73;;
3547;SDS011;1788;49.400;11.092;2022-07-18T05:32:14;4.60;;;3.23;;
3547;SDS011;1788;49.400;11.092;2022-07-18T05:34:41;3.30;;;3.10;;
3547;SDS011;1788;49.400;11.092;2022-07-18T05:37:08;6.07;;;3.73;;
3547;SDS011;1788;49.400;11.092;2022-07-18T05:39:34;2.90;;;2.77;;
3547;SDS011;1788;49.400;11.092;2022-07-18T05:42:01;4.93;;;3.03;;
3547;SDS011;1788;49.400;11.092;2022-07-18T05:44:27;3.13;;;2.97;;
3547;SDS011;1788;49.400;11.092;2022-07-18T05:46:54;4.67;;;3.63;;
3547;SDS011;1788;49.400;11.092;2022-07-18T05:49:21;4.40;;;3.13;;
3547;SDS011;1788;49.400;11.092;2022-07-18T05:54:20;3.77;;;2.23;;
3547;SDS011;1788;49.400;11.092;2022-07-18T05:56:47;3.63;;;2.60;;
3547;SDS011;1788;49.400;11.092;2022-07-18T05:59:14;3.13;;;2.87;;
3547;SDS011;1788;49.400;11.092;2022-07-18T06:01:41;3.07;;;2.87;;
3547;SDS011;1788;49.400;11.092;2022-07-18T06:04:08;3.30;;;3.10;;
3547;SDS011;1788;49.400;11.092;2022-07-18T06:06:35;2.87;;;2.53;;
3547;SDS011;1788;49.400;11.092;2022-07-18T06:09:02;2.90;;;2.70;;
3547;SDS011;1788;49.400;11.092;2022-07-18T06:11:29;2.70;;;2.50;;
3547;SDS011;1788;49.400;11.092;2022-07-18T06:16:23;2.77;;;2.57;;
3547;SDS011;1788;49.400;11.092;2022-07-18T06:18:50;3.17;;;2.87;;
3547;SDS011;1788;49.400;11.092;2022-07-18T06:21:16;3.23;;;2.70;;
3547;SDS011;1788;49.400;11.092;2022-07-18T06:23:43;2.80;;;2.60;;
3547;SDS011;1788;49.400;11.092;2022-07-18T06:26:10;5.20;;;3.20;;
3547;SDS011;1788;49.400;11.092;2022-07-18T06:28:36;3.80;;;2.63;;
3547;SDS011;1788;49.400;11.092;2022-07-18T06:31:03;3.10;;;2.93;;
3547;SDS011;1788;49.400;11.092;2022-07-18T06:33:30;4.30;;;3.50;;
3547;SDS011;1788;49.400;11.092;2022-07-18T06:35:56;3.17;;;2.50;;
3547;SDS011;1788;49.400;11.092;2022-07-18T06:38:23;5.97;;;3.37;;
3547;SDS011;1788;49.400;11.092;2022-07-18T06:40:49;3.60;;;2.30;;
3547;SDS011;1788;49.400;11.092;2022-07-18T06:43:17;4.87;;;2.90;;
3547;SDS011;1788;49.400;11.092;2022-07-18T06:45:43;2.77;;;2.50;;
3547;SDS011;1788;49.400;11.092;2022-07-18T06:48:10;4.97;;;2.80;;
3547;SDS011;1788;49.400;11.092;2022-07-18T06:50:37;3.20;;;2.87;;
3547;SDS011;1788;49.400;11.092;2022-07-18T06:53:03;3.47;;;3.27;;
3547;SDS011;1788;49.400;11.092;2022-07-18T06:55:30;4.13;;;2.60;;
3547;SDS011;1788;49.400;11.092;2022-07-18T06:57:56;2.63;;;2.27;;
3547;SDS011;1788;49.400;11.092;2022-07-18T07:00:23;2.37;;;2.17;;
3547;SDS011;1788;49.400;11.092;2022-07-18T07:02:50;3.17;;;2.60;;
3547;SDS011;1788;49.400;11.092;2022-07-18T07:05:18;2.53;;;2.33;;
3547;SDS011;1788;49.400;11.092;2022-07-18T07:07:44;2.80;;;2.60;;
3547;SDS011;1788;49.400;11.092;2022-07-18T07:10:11;3.30;;;2.50;;
3547;SDS011;1788;49.400;11.092;2022-07-18T07:12:38;2.77;;;2.57;;
3547;SDS011;1788;49.400;11.092;2022-07-18T07:15:04;2.60;;;2.40;;
3547;SDS011;1788;49.400;11.092;2022-07-18T07:17:30;3.63;;;2.60;;
3547;SDS011;1788;49.400;11.092;2022-07-18T07:19:57;3.17;;;2.27;;
3547;SDS011;1788;49.400;11.092;2022-07-18T07:22:24;2.73;;;2.53;;
3547;SDS011;1788;49.400;11.092;2022-07-18T07:24:50;2.30;;;2.10;;
3547;SDS011;1788;49.400;11.092;2022-07-18T07:27:18;3.67;;;2.23;;
3547;SDS011;1788;49.400;11.092;2022-07-18T07:29:44;4.37;;;2.57;;
3547;SDS011;1788;49.400;11.092;2022-07-18T07:32:12;2.67;;;2.50;;
3547;SDS011;1788;49.400;11.092;2022-07-18T07:34:38;3.60;;;2.60;;
3547;SDS011;1788;49.400;11.092;2022-07-18T07:37:06;3.47;;;2.43;;
3547;SDS011;1788;49.400;11.092;2022-07-18T07:39:32;3.60;;;2.67;;
3547;SDS011;1788;49.400;11.092;2022-07-18T07:41:59;3.87;;;2.70;;
3547;SDS011;1788;49.400;11.092;2022-07-18T07:44:25;2.90;;;2.40;;
3547;SDS011;1788;49.400;11.092;2022-07-18T07:46:52;2.73;;;2.53;;
3547;SDS011;1788;49.400;11.092;2022-07-18T07:51:46;3.10;;;2.90;;
3547;SDS011;1788;49.400;11.092;2022-07-18T07:54:15;2.50;;;2.30;;
3547;SDS011;1788;49.400;11.092;2022-07-18T07:56:45;2.73;;;2.53;;
3547;SDS011;1788;49.400;11.092;2022-07-18T08:01:45;2.33;;;2.13;;
3547;SDS011;1788;49.400;11.092;2022-07-18T08:04:13;3.43;;;2.40;;
3547;SDS011;1788;49.400;11.092;2022-07-18T08:06:41;2.33;;;2.13;;
3547;SDS011;1788;49.400;11.092;2022-07-18T08:09:08;3.17;;;2.97;;
3547;SDS011;1788;49.400;11.092;2022-07-18T08:14:12;2.63;;;2.37;;
3547;SDS011;1788;49.400;11.092;2022-07-18T08:16:38;2.43;;;2.23;;
3547;SDS011;1788;49.400;11.092;2022-07-18T08:19:05;2.93;;;2.80;;
3547;SDS011;1788;49.400;11.092;2022-07-18T08:21:33;2.77;;;2.27;;
3547;SDS011;1788;49.400;11.092;2022-07-18T08:24:00;2.20;;;2.00;;
3547;SDS011;1788;49.400;11.092;2022-07-18T08:26:27;2.23;;;2.10;;
3547;SDS011;1788;49.400;11.092;2022-07-18T08:28:56;3.23;;;1.93;;
3547;SDS011;1788;49.400;11.092;2022-07-18T08:31:27;2.30;;;2.10;;
3547;SDS011;1788;49.400;11.092;2022-07-18T08:36:20;3.30;;;2.33;;
3547;SDS011;1788;49.400;11.092;2022-07-18T08:41:24;2.20;;;2.00;;
3547;SDS011;1788;49.400;11.092;2022-07-18T08:51:19;2.67;;;2.47;;
3547;SDS011;1788;49.400;11.092;2022-07-18T08:53:46;2.07;;;1.93;;
3547;SDS011;1788;49.400;11.092;2022-07-18T08:56:12;2.67;;;2.10;;
3547;SDS011;1788;49.400;11.092;2022-07-18T08:58:40;1.60;;;1.40;;
3547;SDS011;1788;49.400;11.092;2022-07-18T09:01:06;2.50;;;1.50;;
3547;SDS011;1788;49.400;11.092;2022-07-18T09:03:34;2.03;;;1.80;;
3547;SDS011;1788;49.400;11.092;2022-07-18T09:08:27;3.60;;;2.00;;
3547;SDS011;1788;49.400;11.092;2022-07-18T09:10:55;2.40;;;2.17;;
3547;SDS011;1788;49.400;11.092;2022-07-18T09:18:13;1.60;;;1.50;;
3547;SDS011;1788;49.400;11.092;2022-07-18T09:23:12;2.60;;;2.10;;
3547;SDS011;1788;49.400;11.092;2022-07-18T09:25:34;2.97;;;1.90;;
3547;SDS011;1788;49.400;11.092;2022-07-18T09:28:01;2.43;;;1.60;;
3547;SDS011;1788;49.400;11.092;2022-07-18T09:30:29;4.20;;;2.30;;
3547;SDS011;1788;49.400;11.092;2022-07-18T09:35:22;2.40;;;2.20;;
3547;SDS011;1788;49.400;11.092;2022-07-18T09:40:16;2.17;;;1.87;;
3547;SDS011;1788;49.400;11.092;2022-07-18T09:42:42;1.93;;;1.67;;
3547;SDS011;1788;49.400;11.092;2022-07-18T09:45:08;1.73;;;1.67;;
3547;SDS011;1788;49.400;11.092;2022-07-18T09:47:48;1.70;;;1.60;;
3547;SDS011;1788;49.400;11.092;2022-07-18T09:50:02;1.33;;;1.20;;
3547;SDS011;1788;49.400;11.092;2022-07-18T09:52:29;3.63;;;1.90;;
3547;SDS011;1788;49.400;11.092;2022-07-18T09:55:03;2.43;;;1.33;;
3547;SDS011;1788;49.400;11.092;2022-07-18T09:57:23;1.87;;;1.57;;
3547;SDS011;1788;49.400;11.092;2022-07-18T09:59:49;1.20;;;1.10;;
3547;SDS011;1788;49.400;11.092;2022-07-18T10:02:16;1.67;;;1.20;;
3547;SDS011;1788;49.400;11.092;2022-07-18T10:04:43;1.23;;;1.13;;
3547;SDS011;1788;49.400;11.092;2022-07-18T10:07:09;2.17;;;1.43;;
3547;SDS011;1788;49.400;11.092;2022-07-18T10:09:37;2.30;;;1.53;;
3547;SDS011;1788;49.400;11.092;2022-07-18T10:12:03;3.63;;;2.07;;
3547;SDS011;1788;49.400;11.092;2022-07-18T10:14:30;1.83;;;1.73;;
3547;SDS011;1788;49.400;11.092;2022-07-18T10:21:51;1.33;;;1.27;;
3547;SDS011;1788;49.400;11.092;2022-07-18T10:29:14;2.50;;;1.43;;
3547;SDS011;1788;49.400;11.092;2022-07-18T10:31:43;1.93;;;1.83;;
3547;SDS011;1788;49.400;11.092;2022-07-18T10:34:09;3.07;;;2.00;;
3547;SDS011;1788;49.400;11.092;2022-07-18T10:36:34;1.40;;;1.30;;
3547;SDS011;1788;49.400;11.092;2022-07-18T10:41:27;1.70;;;1.40;;
3547;SDS011;1788;49.400;11.092;2022-07-18T10:43:53;3.23;;;1.60;;
3547;SDS011;1788;49.400;11.092;2022-07-18T10:46:20;2.13;;;1.40;;
3547;SDS011;1788;49.400;11.092;2022-07-18T10:48:47;1.50;;;1.33;;
3547;SDS011;1788;49.400;11.092;2022-07-18T10:51:15;2.97;;;1.83;;
3547;SDS011;1788;49.400;11.092;2022-07-18T10:56:08;2.60;;;1.27;;
3547;SDS011;1788;49.400;11.092;2022-07-18T10:58:37;1.53;;;1.47;;
3547;SDS011;1788;49.400;11.092;2022-07-18T11:01:02;1.47;;;1.40;;
3547;SDS011;1788;49.400;11.092;2022-07-18T11:03:28;1.37;;;1.30;;
3547;SDS011;1788;49.400;11.092;2022-07-18T11:05:56;1.50;;;1.40;;
3547;SDS011;1788;49.400;11.092;2022-07-18T11:18:08;3.07;;;1.53;;
3547;SDS011;1788;49.400;11.092;2022-07-18T11:20:37;1.80;;;1.70;;
3547;SDS011;1788;49.400;11.092;2022-07-18T11:23:04;2.10;;;1.67;;
3547;SDS011;1788;49.400;11.092;2022-07-18T11:25:30;2.45;;;1.73;;
3547;SDS011;1788;49.400;11.092;2022-07-18T11:27:56;2.80;;;1.80;;
3547;SDS011;1788;49.400;11.092;2022-07-18T11:30:23;1.27;;;1.17;;
3547;SDS011;1788;49.400;11.092;2022-07-18T11:32:49;1.73;;;1.60;;
3547;SDS011;1788;49.400;11.092;2022-07-18T11:40:09;1.17;;;1.10;;
3547;SDS011;1788;49.400;11.092;2022-07-18T11:42:38;1.17;;;1.07;;
3547;SDS011;1788;49.400;11.092;2022-07-18T11:47:31;1.40;;;1.30;;
3547;SDS011;1788;49.400;11.092;2022-07-18T11:49:59;1.53;;;1.27;;
3547;SDS011;1788;49.400;11.092;2022-07-18T11:52:25;2.30;;;1.20;;
3547;SDS011;1788;49.400;11.092;2022-07-18T11:54:52;1.20;;;1.10;;
3547;SDS011;1788;49.400;11.092;2022-07-18T11:59:45;1.40;;;1.20;;
3547;SDS011;1788;49.400;11.092;2022-07-18T12:02:12;3.15;;;1.55;;
3547;SDS011;1788;49.400;11.092;2022-07-18T12:04:38;1.27;;;1.17;;
3547;SDS011;1788;49.400;11.092;2022-07-18T12:09:32;1.30;;;1.20;;
3547;SDS011;1788;49.400;11.092;2022-07-18T12:12:06;1.27;;;1.17;;
3547;SDS011;1788;49.400;11.092;2022-07-18T12:14:25;3.60;;;1.62;;
3547;SDS011;1788;49.400;11.092;2022-07-18T12:19:20;2.80;;;1.55;;
3547;SDS011;1788;49.400;11.092;2022-07-18T12:21:46;1.40;;;1.20;;
3547;SDS011;1788;49.400;11.092;2022-07-18T12:26:38;1.62;;;1.52;;
3547;SDS011;1788;49.400;11.092;2022-07-18T12:29:05;2.58;;;1.58;;
3547;SDS011;1788;49.400;11.092;2022-07-18T12:36:25;1.73;;;1.00;;
3547;SDS011;1788;49.400;11.092;2022-07-18T12:41:26;1.30;;;1.20;;
3547;SDS011;1788;49.400;11.092;2022-07-18T12:43:45;1.77;;;1.00;;
3547;SDS011;1788;49.400;11.092;2022-07-18T12:46:12;1.05;;;0.95;;
3547;SDS011;1788;49.400;11.092;2022-07-18T12:51:06;1.10;;;1.00;;
3547;SDS011;1788;49.400;11.092;2022-07-18T12:53:34;1.52;;;1.30;;
3547;SDS011;1788;49.400;11.092;2022-07-18T12:55:59;1.60;;;1.15;;
3547;SDS011;1788;49.400;11.092;2022-07-18T12:58:26;2.20;;;1.50;;
3547;SDS011;1788;49.400;11.092;2022-07-18T13:00:52;3.12;;;1.17;;
3547;SDS011;1788;49.400;11.092;2022-07-18T13:08:12;1.20;;;1.10;;
3547;SDS011;1788;49.400;11.092;2022-07-18T13:10:39;1.30;;;1.20;;
3547;SDS011;1788;49.400;11.092;2022-07-18T13:13:06;1.75;;;1.20;;
3547;SDS011;1788;49.400;11.092;2022-07-18T13:20:27;1.62;;;1.52;;
3547;SDS011;1788;49.400;11.092;2022-07-18T13:25:21;1.35;;;1.25;;
3547;SDS011;1788;49.400;11.092;2022-07-18T13:27:47;1.10;;;1.00;;
3547;SDS011;1788;49.400;11.092;2022-07-18T13:30:13;1.05;;;1.00;;
3547;SDS011;1788;49.400;11.092;2022-07-18T13:32:40;1.42;;;1.02;;
3547;SDS011;1788;49.400;11.092;2022-07-18T13:35:07;1.33;;;1.25;;
3547;SDS011;1788;49.400;11.092;2022-07-18T13:37:33;1.17;;;1.08;;
3547;SDS011;1788;49.400;11.092;2022-07-18T13:40:00;2.40;;;1.40;;
3547;SDS011;1788;49.400;11.092;2022-07-18T13:42:27;1.85;;;1.10;;
3547;SDS011;1788;49.400;11.092;2022-07-18T13:44:54;3.60;;;1.10;;
3547;SDS011;1788;49.400;11.092;2022-07-18T13:47:21;2.62;;;1.45;;
3547;SDS011;1788;49.400;11.092;2022-07-18T13:49:47;1.85;;;1.02;;
3547;SDS011;1788;49.400;11.092;2022-07-18T13:52:14;1.73;;;1.37;;
3547;SDS011;1788;49.400;11.092;2022-07-18T13:54:41;1.55;;;1.45;;
3547;SDS011;1788;49.400;11.092;2022-07-18T13:57:07;1.25;;;1.20;;
3547;SDS011;1788;49.400;11.092;2022-07-18T13:59:34;1.50;;;0.88;;
3547;SDS011;1788;49.400;11.092;2022-07-18T14:02:01;2.37;;;1.30;;
3547;SDS011;1788;49.400;11.092;2022-07-18T14:04:28;1.35;;;1.17;;
3547;SDS011;1788;49.400;11.092;2022-07-18T14:06:54;0.93;;;0.82;;
3547;SDS011;1788;49.400;11.092;2022-07-18T14:09:21;1.52;;;1.17;;
3547;SDS011;1788;49.400;11.092;2022-07-18T14:11:48;1.17;;;1.10;;
3547;SDS011;1788;49.400;11.092;2022-07-18T14:16:42;3.70;;;1.40;;
3547;SDS011;1788;49.400;11.092;2022-07-18T14:19:09;2.22;;;1.52;;
3547;SDS011;1788;49.400;11.092;2022-07-18T14:21:36;1.20;;;1.15;;
3547;SDS011;1788;49.400;11.092;2022-07-18T14:24:03;1.50;;;1.40;;
3547;SDS011;1788;49.400;11.092;2022-07-18T14:26:30;1.83;;;1.12;;
3547;SDS011;1788;49.400;11.092;2022-07-18T14:28:56;1.45;;;1.10;;
3547;SDS011;1788;49.400;11.092;2022-07-18T14:31:23;1.85;;;1.20;;
3547;SDS011;1788;49.400;11.092;2022-07-18T14:33:49;1.80;;;1.15;;
3547;SDS011;1788;49.400;11.092;2022-07-18T14:36:16;1.15;;;1.10;;
3547;SDS011;1788;49.400;11.092;2022-07-18T14:38:43;1.95;;;1.40;;
3547;SDS011;1788;49.400;11.092;2022-07-18T14:41:09;1.10;;;1.00;;
3547;SDS011;1788;49.400;11.092;2022-07-18T14:43:36;1.40;;;1.27;;
3547;SDS011;1788;49.400;11.092;2022-07-18T14:46:03;1.77;;;1.30;;
3547;SDS011;1788;49.400;11.092;2022-07-18T14:48:30;1.15;;;1.05;;
3547;SDS011;1788;49.400;11.092;2022-07-18T14:50:57;1.02;;;1.00;;
3547;SDS011;1788;49.400;11.092;2022-07-18T14:53:23;1.33;;;1.25;;
3547;SDS011;1788;49.400;11.092;2022-07-18T14:55:50;1.37;;;1.27;;
3547;SDS011;1788;49.400;11.092;2022-07-18T14:58:17;1.27;;;1.17;;
3547;SDS011;1788;49.400;11.092;2022-07-18T15:00:43;1.08;;;0.98;;
3547;SDS011;1788;49.400;11.092;2022-07-18T15:03:10;1.08;;;0.98;;
3547;SDS011;1788;49.400;11.092;2022-07-18T15:05:36;1.10;;;1.02;;
3547;SDS011;1788;49.400;11.092;2022-07-18T15:08:03;1.17;;;1.08;;
3547;SDS011;1788;49.400;11.092;2022-07-18T15:10:30;1.73;;;1.65;;
3547;SDS011;1788;49.400;11.092;2022-07-18T15:12:56;1.35;;;1.25;;
3547;SDS011;1788;49.400;11.092;2022-07-18T15:15:23;1.35;;;1.30;;
3547;SDS011;1788;49.400;11.092;2022-07-18T15:17:51;1.80;;;1.23;;
3547;SDS011;1788;49.400;11.092;2022-07-18T15:20:17;2.10;;;1.95;;
3547;SDS011;1788;49.400;11.092;2022-07-18T15:22:44;2.05;;;1.42;;
3547;SDS011;1788;49.400;11.092;2022-07-18T15:25:10;1.45;;;1.00;;
3547;SDS011;1788;49.400;11.092;2022-07-18T15:27:37;1.20;;;0.90;;
3547;SDS011;1788;49.400;11.092;2022-07-18T15:30:04;3.72;;;1.52;;
3547;SDS011;1788;49.400;11.092;2022-07-18T15:32:30;3.85;;;1.62;;
3547;SDS011;1788;49.400;11.092;2022-07-18T15:34:57;1.33;;;1.10;;
3547;SDS011;1788;49.400;11.092;2022-07-18T15:37:24;1.40;;;1.35;;
3547;SDS011;1788;49.400;11.092;2022-07-18T15:39:50;1.65;;;1.40;;
3547;SDS011;1788;49.400;11.092;2022-07-18T15:42:18;1.50;;;1.40;;
3547;SDS011;1788;49.400;11.092;2022-07-18T15:44:45;1.52;;;1.37;;
3547;SDS011;1788;49.400;11.092;2022-07-18T15:47:12;1.02;;;0.93;;
3547;SDS011;1788;49.400;11.092;2022-07-18T15:49:39;1.45;;;1.35;;
3547;SDS011;1788;49.400;11.092;2022-07-18T15:52:06;1.25;;;1.15;;
3547;SDS011;1788;49.400;11.092;2022-07-18T15:54:32;1.37;;;1.35;;
3547;SDS011;1788;49.400;11.092;2022-07-18T15:56:59;1.10;;;1.00;;
3547;SDS011;1788;49.400;11.092;2022-07-18T15:59:25;1.45;;;1.00;;
3547;SDS011;1788;49.400;11.092;2022-07-18T16:01:52;1.30;;;1.20;;
3547;SDS011;1788;49.400;11.092;2022-07-18T16:04:19;1.55;;;1.45;;
3547;SDS011;1788;49.400;11.092;2022-07-18T16:06:46;1.67;;;1.58;;
3547;SDS011;1788;49.400;11.092;2022-07-18T16:09:13;3.17;;;2.20;;
3547;SDS011;1788;49.400;11.092;2022-07-18T16:11:40;1.70;;;1.60;;
3547;SDS011;1788;49.400;11.092;2022-07-18T16:14:08;1.43;;;1.20;;
3547;SDS011;1788;49.400;11.092;2022-07-18T16:16:34;1.30;;;1.20;;
3547;SDS011;1788;49.400;11.092;2022-07-18T16:19:01;1.70;;;1.40;;
3547;SDS011;1788;49.400;11.092;2022-07-18T16:21:28;1.63;;;1.53;;
3547;SDS011;1788;49.400;11.092;2022-07-18T16:23:54;1.73;;;1.63;;
3547;SDS011;1788;49.400;11.092;2022-07-18T16:26:21;1.40;;;1.30;;
3547;SDS011;1788;49.400;11.092;2022-07-18T16:28:48;1.90;;;1.20;;
3547;SDS011;1788;49.400;11.092;2022-07-18T16:31:15;1.53;;;1.03;;
3547;SDS011;1788;49.400;11.092;2022-07-18T16:33:42;1.40;;;1.30;;
3547;SDS011;1788;49.400;11.092;2022-07-18T16:36:09;1.55;;;1.45;;
3547;SDS011;1788;49.400;11.092;2022-07-18T16:38:35;1.50;;;1.40;;
3547;SDS011;1788;49.400;11.092;2022-07-18T16:41:02;57.57;;;15.93;;
3547;SDS011;1788;49.400;11.092;2022-07-18T16:43:28;43.33;;;11.75;;
3547;SDS011;1788;49.400;11.092;2022-07-18T16:45:55;14.40;;;4.60;;
3547;SDS011;1788;49.400;11.092;2022-07-18T16:48:22;3.40;;;1.77;;
3547;SDS011;1788;49.400;11.092;2022-07-18T16:50:48;8.60;;;3.73;;
3547;SDS011;1788;49.400;11.092;2022-07-18T16:53:15;4.80;;;2.77;;
3547;SDS011;1788;49.400;11.092;2022-07-18T16:55:42;9.70;;;3.57;;
3547;SDS011;1788;49.400;11.092;2022-07-18T16:58:09;1.37;;;1.27;;
3547;SDS011;1788;49.400;11.092;2022-07-18T17:00:36;1.53;;;1.43;;
3547;SDS011;1788;49.400;11.092;2022-07-18T17:03:03;0.87;;;0.77;;